TAF KHYS
KHYS 090520Z 0906/1006 21008KT P6SM SCT250 FM090800 26009KT P6SM FEW250 WS020/33040KT FM091500 33010KT P6SM FEW250=
METAR KHYS
WC KHYS
WS KHYS
WV KHYS